createdAt,value
2023-03-26T00:06:25.615Z,26.12
2023-03-26T00:10:25.852Z,26.12
2023-03-26T00:14:26.074Z,26.10
2023-03-26T00:18:26.259Z,26.08
2023-03-26T00:22:26.485Z,26.09
2023-03-26T00:26:26.661Z,26.08
2023-03-26T00:30:26.909Z,26.09
2023-03-26T00:34:27.130Z,26.06
2023-03-26T00:38:27.367Z,26.06
2023-03-26T00:42:27.323Z,26.06
2023-03-26T00:46:27.300Z,26.05
2023-03-26T00:50:27.226Z,26.06
2023-03-26T05:02:26.342Z,25.78
2023-03-26T05:06:26.198Z,25.76
2023-03-26T05:14:26.270Z,25.78
2023-03-26T05:18:26.228Z,25.79
2023-03-26T05:22:26.205Z,25.76
2023-03-26T05:26:26.171Z,25.76
2023-03-26T05:30:26.077Z,25.78
2023-03-26T05:34:26.083Z,25.75
2023-03-26T05:38:26.066Z,25.76
2023-03-26T05:42:26.044Z,25.76
2023-03-26T05:46:26.009Z,25.79
2023-03-26T05:50:25.948Z,25.76
2023-03-26T05:54:26.073Z,25.78
2023-03-26T05:58:26.099Z,25.76
2023-03-26T06:02:26.098Z,25.78
2023-03-26T06:06:25.973Z,25.78
2023-03-26T06:10:25.948Z,25.76
2023-03-26T06:14:25.961Z,25.78
2023-03-26T06:18:25.899Z,25.76
2023-03-26T06:22:25.829Z,25.78
2023-03-26T06:26:25.855Z,25.79
2023-03-26T06:30:25.822Z,25.79
2023-03-26T06:34:25.785Z,25.81
2023-03-26T06:38:25.786Z,25.79
2023-03-26T06:43:06.957Z,25.84
2023-03-26T06:46:26.767Z,25.84
2023-03-26T06:50:25.659Z,25.85
2023-03-26T06:54:25.673Z,25.86
2023-03-26T06:58:25.587Z,25.86
2023-03-26T07:02:25.548Z,25.84
2023-03-26T07:06:25.500Z,25.88
2023-03-26T07:10:25.483Z,25.89
2023-03-26T07:14:25.504Z,25.89
2023-03-26T07:18:25.427Z,25.96
2023-03-26T07:22:25.398Z,25.96
2023-03-26T07:26:25.312Z,26.02
2023-03-26T07:30:25.308Z,26.05
2023-03-26T07:34:25.474Z,26.03
2023-03-26T07:38:25.724Z,26.00
2023-03-26T07:42:25.954Z,26.00
2023-03-26T07:46:25.929Z,25.99
2023-03-26T07:50:25.851Z,26.02
2023-03-26T07:54:25.792Z,26.05
2023-03-26T07:58:25.801Z,26.09
2023-03-26T08:02:25.806Z,26.09
2023-03-26T08:06:25.698Z,26.13
2023-03-26T08:10:25.667Z,26.18
2023-03-26T08:14:25.617Z,26.16
2023-03-26T08:18:25.572Z,26.16
2023-03-26T08:22:25.558Z,26.16
2023-03-26T08:26:25.671Z,26.15
2023-03-26T08:30:25.861Z,26.18
2023-03-26T08:34:26.090Z,26.19
2023-03-26T08:38:26.301Z,26.23
2023-03-26T08:42:26.429Z,26.26
2023-03-26T08:46:26.606Z,26.29
2023-03-26T08:50:26.775Z,26.25
2023-03-26T08:54:26.937Z,26.28
2023-03-26T08:58:27.223Z,26.28
2023-03-26T09:02:27.351Z,26.26
2023-03-26T09:06:27.449Z,26.29
2023-03-26T09:10:27.638Z,26.28
2023-03-26T09:14:27.770Z,26.25
2023-03-26T09:18:27.974Z,26.25
2023-03-26T09:22:28.099Z,26.26
2023-03-26T09:26:28.222Z,26.28
2023-03-26T09:30:28.430Z,26.26
2023-03-26T09:34:28.555Z,26.28
2023-03-26T09:38:28.704Z,26.28
2023-03-26T09:42:28.818Z,26.29
2023-03-26T09:46:29.130Z,26.30
2023-03-26T10:06:29.565Z,26.38
2023-03-26T10:38:30.381Z,26.46
2023-03-26T10:42:30.399Z,26.44
2023-03-26T10:46:30.547Z,26.42
2023-03-26T10:50:30.616Z,26.42
2023-03-26T10:54:30.742Z,26.42
2023-03-26T10:58:48.373Z,26.42
2023-03-26T11:06:30.775Z,26.44
2023-03-26T11:10:30.675Z,26.44
2023-03-26T11:14:34.942Z,26.49
2023-03-26T11:18:30.612Z,26.50
2023-03-26T11:22:30.566Z,26.53
2023-03-26T11:26:30.590Z,26.56
2023-03-26T11:30:30.529Z,26.57
2023-03-26T11:34:30.461Z,26.54
2023-03-26T11:38:30.467Z,26.59
2023-03-26T11:42:30.415Z,26.62
2023-03-26T11:46:33.144Z,26.63
2023-03-26T11:50:30.339Z,26.64
2023-03-26T11:54:30.398Z,26.67
2023-03-26T11:58:30.296Z,26.63
2023-03-26T12:02:30.263Z,26.64
2023-03-26T12:06:30.160Z,26.63
2023-03-26T12:10:30.132Z,26.62
2023-03-26T12:14:30.101Z,26.59
2023-03-26T12:18:30.065Z,26.59
2023-03-26T12:22:30.043Z,26.57
2023-03-26T12:26:29.974Z,26.54
2023-03-26T12:30:29.940Z,26.56
2023-03-26T12:34:29.917Z,26.54
2023-03-26T12:38:29.865Z,26.54
2023-03-26T12:44:48.365Z,26.50
2023-03-26T12:50:34.532Z,26.47
2023-03-26T12:58:29.702Z,26.49
2023-03-26T13:02:29.765Z,26.44
2023-03-26T13:06:29.620Z,26.46
2023-03-26T13:10:29.576Z,26.44
2023-03-26T13:14:29.585Z,26.43
2023-03-26T13:18:29.680Z,26.43
2023-03-26T13:22:29.740Z,26.42
2023-03-26T13:26:29.832Z,26.38
2023-03-26T13:30:29.933Z,26.39
2023-03-26T13:34:30.037Z,26.35
2023-03-26T13:38:30.128Z,26.38
2023-03-26T13:42:30.193Z,26.35
2023-03-26T13:46:30.362Z,26.32
2023-03-26T13:50:30.448Z,26.30
2023-03-26T13:54:30.573Z,26.30
2023-03-26T19:46:53.734Z,25.76
2023-03-26T20:10:38.342Z,25.72
2023-03-26T20:50:44.849Z,25.69
2023-03-26T20:54:39.283Z,25.71
2023-03-26T20:58:38.288Z,25.68
2023-03-26T21:02:38.903Z,25.69
2023-03-26T21:26:41.654Z,25.66
